sensor_id;sensor_type;location;lat;lon;timestamp;temperature;humidity
12335;DHT22;6233;51.560;9.986;2022-07-06T00:01:36;16.70;99.90
12335;DHT22;6233;51.560;9.986;2022-07-06T00:04:46;16.70;99.90
12335;DHT22;6233;51.560;9.986;2022-07-06T00:07:48;16.60;99.90
12335;DHT22;6233;51.560;9.986;2022-07-06T00:10:50;16.50;99.90
12335;DHT22;6233;51.560;9.986;2022-07-06T00:13:52;16.50;99.90
12335;DHT22;6233;51.560;9.986;2022-07-06T00:16:53;16.40;99.90
12335;DHT22;6233;51.560;9.986;2022-07-06T00:19:55;16.40;99.90
12335;DHT22;6233;51.560;9.986;2022-07-06T00:22:57;16.40;99.90
12335;DHT22;6233;51.560;9.986;2022-07-06T00:25:59;16.40;99.90
12335;DHT22;6233;51.560;9.986;2022-07-06T00:29:01;16.40;99.90
12335;DHT22;6233;51.560;9.986;2022-07-06T00:32:03;16.40;99.90
12335;DHT22;6233;51.560;9.986;2022-07-06T00:35:05;16.30;99.90
12335;DHT22;6233;51.560;9.986;2022-07-06T00:38:09;16.20;99.90
12335;DHT22;6233;51.560;9.986;2022-07-06T00:41:12;16.20;99.90
12335;DHT22;6233;51.560;9.986;2022-07-06T00:44:15;16.10;99.90
12335;DHT22;6233;51.560;9.986;2022-07-06T00:47:16;16.10;99.90
12335;DHT22;6233;51.560;9.986;2022-07-06T00:50:18;16.00;99.90
12335;DHT22;6233;51.560;9.986;2022-07-06T00:53:24;15.90;99.90
12335;DHT22;6233;51.560;9.986;2022-07-06T00:56:26;15.90;99.90
12335;DHT22;6233;51.560;9.986;2022-07-06T00:59:30;15.80;99.90
12335;DHT22;6233;51.560;9.986;2022-07-06T01:02:34;15.80;99.90
12335;DHT22;6233;51.560;9.986;2022-07-06T01:05:36;15.80;99.90
12335;DHT22;6233;51.560;9.986;2022-07-06T01:08:38;15.70;99.90
12335;DHT22;6233;51.560;9.986;2022-07-06T01:11:40;15.70;99.90
12335;DHT22;6233;51.560;9.986;2022-07-06T01:14:42;15.70;99.90
12335;DHT22;6233;51.560;9.986;2022-07-06T01:17:45;15.70;99.90
12335;DHT22;6233;51.560;9.986;2022-07-06T01:20:47;15.70;99.90
12335;DHT22;6233;51.560;9.986;2022-07-06T01:23:49;15.60;99.90
12335;DHT22;6233;51.560;9.986;2022-07-06T01:26:51;15.50;99.90
12335;DHT22;6233;51.560;9.986;2022-07-06T01:29:53;15.50;99.90
12335;DHT22;6233;51.560;9.986;2022-07-06T01:32:54;15.50;99.90
12335;DHT22;6233;51.560;9.986;2022-07-06T01:35:56;15.50;99.90
12335;DHT22;6233;51.560;9.986;2022-07-06T01:38:58;15.40;99.90
12335;DHT22;6233;51.560;9.986;2022-07-06T01:42:00;15.40;99.90
12335;DHT22;6233;51.560;9.986;2022-07-06T01:45:03;15.30;99.90
12335;DHT22;6233;51.560;9.986;2022-07-06T01:48:06;15.20;99.90
12335;DHT22;6233;51.560;9.986;2022-07-06T01:51:08;15.20;99.90
12335;DHT22;6233;51.560;9.986;2022-07-06T01:54:10;15.20;99.90
12335;DHT22;6233;51.560;9.986;2022-07-06T01:57:12;15.10;99.90
12335;DHT22;6233;51.560;9.986;2022-07-06T02:00:14;15.20;99.90
12335;DHT22;6233;51.560;9.986;2022-07-06T02:03:16;15.20;99.90
12335;DHT22;6233;51.560;9.986;2022-07-06T02:06:17;15.10;99.90
12335;DHT22;6233;51.560;9.986;2022-07-06T02:09:29;15.10;99.90
12335;DHT22;6233;51.560;9.986;2022-07-06T02:12:31;15.00;99.90
12335;DHT22;6233;51.560;9.986;2022-07-06T02:15:33;14.80;99.90
12335;DHT22;6233;51.560;9.986;2022-07-06T02:18:34;14.80;99.90
12335;DHT22;6233;51.560;9.986;2022-07-06T02:21:36;14.80;99.90
12335;DHT22;6233;51.560;9.986;2022-07-06T02:24:38;14.80;99.90
12335;DHT22;6233;51.560;9.986;2022-07-06T02:27:40;14.80;99.90
12335;DHT22;6233;51.560;9.986;2022-07-06T02:30:41;14.80;99.90
12335;DHT22;6233;51.560;9.986;2022-07-06T02:33:43;14.80;99.90
12335;DHT22;6233;51.560;9.986;2022-07-06T02:36:45;14.70;99.90
12335;DHT22;6233;51.560;9.986;2022-07-06T02:39:47;14.70;99.90
12335;DHT22;6233;51.560;9.986;2022-07-06T02:42:49;14.80;99.90
12335;DHT22;6233;51.560;9.986;2022-07-06T02:45:51;14.70;99.90
12335;DHT22;6233;51.560;9.986;2022-07-06T02:48:52;14.70;99.90
12335;DHT22;6233;51.560;9.986;2022-07-06T02:51:54;14.60;99.90
12335;DHT22;6233;51.560;9.986;2022-07-06T02:54:56;14.60;99.90
12335;DHT22;6233;51.560;9.986;2022-07-06T02:57:58;14.60;99.90
12335;DHT22;6233;51.560;9.986;2022-07-06T03:00:59;14.50;99.90
12335;DHT22;6233;51.560;9.986;2022-07-06T03:04:01;14.50;99.90
12335;DHT22;6233;51.560;9.986;2022-07-06T03:07:03;14.50;99.90
12335;DHT22;6233;51.560;9.986;2022-07-06T03:10:05;14.50;99.90
12335;DHT22;6233;51.560;9.986;2022-07-06T03:13:07;14.50;99.90
12335;DHT22;6233;51.560;9.986;2022-07-06T03:16:09;14.50;99.90
12335;DHT22;6233;51.560;9.986;2022-07-06T03:19:11;14.50;99.90
12335;DHT22;6233;51.560;9.986;2022-07-06T03:22:12;14.50;99.90
12335;DHT22;6233;51.560;9.986;2022-07-06T03:25:14;14.50;99.90
12335;DHT22;6233;51.560;9.986;2022-07-06T03:28:16;14.50;99.90
12335;DHT22;6233;51.560;9.986;2022-07-06T03:31:18;14.50;99.90
12335;DHT22;6233;51.560;9.986;2022-07-06T03:34:22;14.50;99.90
12335;DHT22;6233;51.560;9.986;2022-07-06T03:37:24;14.40;99.90
12335;DHT22;6233;51.560;9.986;2022-07-06T03:40:26;14.40;99.90
12335;DHT22;6233;51.560;9.986;2022-07-06T03:43:27;14.40;99.90
12335;DHT22;6233;51.560;9.986;2022-07-06T03:46:29;14.40;99.90
12335;DHT22;6233;51.560;9.986;2022-07-06T03:49:31;14.40;99.90
12335;DHT22;6233;51.560;9.986;2022-07-06T03:52:34;14.40;99.90
12335;DHT22;6233;51.560;9.986;2022-07-06T03:55:36;14.40;99.90
12335;DHT22;6233;51.560;9.986;2022-07-06T03:58:38;14.40;99.90
12335;DHT22;6233;51.560;9.986;2022-07-06T04:01:40;14.40;99.90
12335;DHT22;6233;51.560;9.986;2022-07-06T04:04:42;14.40;99.90
12335;DHT22;6233;51.560;9.986;2022-07-06T04:07:44;14.40;99.90
12335;DHT22;6233;51.560;9.986;2022-07-06T04:10:46;14.40;99.90
12335;DHT22;6233;51.560;9.986;2022-07-06T04:13:48;14.40;99.90
12335;DHT22;6233;51.560;9.986;2022-07-06T04:16:49;14.40;99.90
12335;DHT22;6233;51.560;9.986;2022-07-06T04:19:51;14.40;99.90
12335;DHT22;6233;51.560;9.986;2022-07-06T04:22:53;14.40;99.90
12335;DHT22;6233;51.560;9.986;2022-07-06T04:25:55;14.50;99.90
12335;DHT22;6233;51.560;9.986;2022-07-06T04:28:59;14.50;99.90
12335;DHT22;6233;51.560;9.986;2022-07-06T04:32:01;14.50;99.90
12335;DHT22;6233;51.560;9.986;2022-07-06T04:35:04;14.50;99.90
12335;DHT22;6233;51.560;9.986;2022-07-06T04:38:06;14.60;99.90
12335;DHT22;6233;51.560;9.986;2022-07-06T04:41:08;14.60;99.90
12335;DHT22;6233;51.560;9.986;2022-07-06T04:44:10;14.60;99.90
12335;DHT22;6233;51.560;9.986;2022-07-06T04:47:12;14.60;99.90
12335;DHT22;6233;51.560;9.986;2022-07-06T04:50:14;14.60;99.90
12335;DHT22;6233;51.560;9.986;2022-07-06T04:53:16;14.60;99.90
12335;DHT22;6233;51.560;9.986;2022-07-06T04:56:18;14.60;99.90
12335;DHT22;6233;51.560;9.986;2022-07-06T04:59:19;14.60;99.90
12335;DHT22;6233;51.560;9.986;2022-07-06T05:02:21;14.70;99.90
12335;DHT22;6233;51.560;9.986;2022-07-06T05:05:23;14.70;99.90
12335;DHT22;6233;51.560;9.986;2022-07-06T05:08:25;14.80;99.90
12335;DHT22;6233;51.560;9.986;2022-07-06T05:11:28;14.80;99.90
12335;DHT22;6233;51.560;9.986;2022-07-06T05:14:30;14.80;99.90
12335;DHT22;6233;51.560;9.986;2022-07-06T05:17:31;14.80;99.90
12335;DHT22;6233;51.560;9.986;2022-07-06T05:20:33;14.80;99.90
12335;DHT22;6233;51.560;9.986;2022-07-06T05:23:35;14.80;99.90
12335;DHT22;6233;51.560;9.986;2022-07-06T05:26:37;14.80;99.90
12335;DHT22;6233;51.560;9.986;2022-07-06T05:29:39;14.90;99.90
12335;DHT22;6233;51.560;9.986;2022-07-06T05:32:41;14.90;99.90
12335;DHT22;6233;51.560;9.986;2022-07-06T05:35:43;14.90;99.90
12335;DHT22;6233;51.560;9.986;2022-07-06T05:38:53;14.90;99.90
12335;DHT22;6233;51.560;9.986;2022-07-06T05:41:55;15.00;99.90
12335;DHT22;6233;51.560;9.986;2022-07-06T05:44:56;15.10;99.90
12335;DHT22;6233;51.560;9.986;2022-07-06T05:47:58;15.20;99.90
12335;DHT22;6233;51.560;9.986;2022-07-06T05:51:18;15.30;99.90
12335;DHT22;6233;51.560;9.986;2022-07-06T05:54:20;15.40;99.90
12335;DHT22;6233;51.560;9.986;2022-07-06T05:57:22;15.40;99.90
12335;DHT22;6233;51.560;9.986;2022-07-06T06:00:26;15.50;99.90
12335;DHT22;6233;51.560;9.986;2022-07-06T06:03:28;15.40;99.90
12335;DHT22;6233;51.560;9.986;2022-07-06T06:06:29;15.40;99.90
12335;DHT22;6233;51.560;9.986;2022-07-06T06:09:32;15.30;99.90
12335;DHT22;6233;51.560;9.986;2022-07-06T06:12:35;15.30;99.90
12335;DHT22;6233;51.560;9.986;2022-07-06T06:15:36;15.40;99.90
12335;DHT22;6233;51.560;9.986;2022-07-06T06:18:38;15.40;99.90
12335;DHT22;6233;51.560;9.986;2022-07-06T06:21:44;15.50;99.90
12335;DHT22;6233;51.560;9.986;2022-07-06T06:24:46;15.50;99.90
12335;DHT22;6233;51.560;9.986;2022-07-06T06:27:50;15.50;99.90
12335;DHT22;6233;51.560;9.986;2022-07-06T06:30:52;15.60;99.90
12335;DHT22;6233;51.560;9.986;2022-07-06T06:33:54;15.60;99.90
12335;DHT22;6233;51.560;9.986;2022-07-06T06:36:56;15.60;99.90
12335;DHT22;6233;51.560;9.986;2022-07-06T06:39:58;15.70;99.90
12335;DHT22;6233;51.560;9.986;2022-07-06T06:43:00;15.80;99.90
12335;DHT22;6233;51.560;9.986;2022-07-06T06:46:04;15.90;99.90
12335;DHT22;6233;51.560;9.986;2022-07-06T06:49:06;16.00;99.90
12335;DHT22;6233;51.560;9.986;2022-07-06T06:52:07;16.10;99.90
12335;DHT22;6233;51.560;9.986;2022-07-06T06:55:29;16.40;99.90
12335;DHT22;6233;51.560;9.986;2022-07-06T06:58:31;16.70;99.90
12335;DHT22;6233;51.560;9.986;2022-07-06T07:01:53;16.80;99.90
12335;DHT22;6233;51.560;9.986;2022-07-06T07:04:57;16.90;99.90
12335;DHT22;6233;51.560;9.986;2022-07-06T07:07:59;16.80;99.90
12335;DHT22;6233;51.560;9.986;2022-07-06T07:11:08;16.70;99.90
12335;DHT22;6233;51.560;9.986;2022-07-06T07:14:10;16.70;99.90
12335;DHT22;6233;51.560;9.986;2022-07-06T07:17:12;16.70;99.90
12335;DHT22;6233;51.560;9.986;2022-07-06T07:20:14;16.80;99.90
12335;DHT22;6233;51.560;9.986;2022-07-06T07:23:16;17.00;99.90
12335;DHT22;6233;51.560;9.986;2022-07-06T07:26:18;17.10;99.90
12335;DHT22;6233;51.560;9.986;2022-07-06T07:29:20;17.10;99.90
12335;DHT22;6233;51.560;9.986;2022-07-06T07:32:22;17.10;99.90
12335;DHT22;6233;51.560;9.986;2022-07-06T07:35:23;17.10;99.90
12335;DHT22;6233;51.560;9.986;2022-07-06T07:38:25;17.30;99.90
12335;DHT22;6233;51.560;9.986;2022-07-06T07:41:28;17.40;99.90
12335;DHT22;6233;51.560;9.986;2022-07-06T07:44:30;17.50;99.90
12335;DHT22;6233;51.560;9.986;2022-07-06T07:47:31;17.50;99.90
12335;DHT22;6233;51.560;9.986;2022-07-06T07:50:33;17.50;99.90
12335;DHT22;6233;51.560;9.986;2022-07-06T07:53:36;17.60;99.90
12335;DHT22;6233;51.560;9.986;2022-07-06T07:56:38;17.60;99.90
12335;DHT22;6233;51.560;9.986;2022-07-06T07:59:42;17.50;99.90
12335;DHT22;6233;51.560;9.986;2022-07-06T08:02:47;17.40;99.90
12335;DHT22;6233;51.560;9.986;2022-07-06T08:05:49;17.60;99.90
12335;DHT22;6233;51.560;9.986;2022-07-06T08:08:52;17.90;99.90
12335;DHT22;6233;51.560;9.986;2022-07-06T08:11:54;18.40;99.90
12335;DHT22;6233;51.560;9.986;2022-07-06T08:14:56;18.70;99.90
12335;DHT22;6233;51.560;9.986;2022-07-06T08:17:58;18.70;99.90
12335;DHT22;6233;51.560;9.986;2022-07-06T08:21:00;18.70;99.90
12335;DHT22;6233;51.560;9.986;2022-07-06T08:24:22;18.70;99.90
12335;DHT22;6233;51.560;9.986;2022-07-06T08:27:24;18.70;99.90
12335;DHT22;6233;51.560;9.986;2022-07-06T08:30:26;18.70;99.90
12335;DHT22;6233;51.560;9.986;2022-07-06T08:33:28;18.70;99.90
12335;DHT22;6233;51.560;9.986;2022-07-06T08:36:30;18.70;99.90
12335;DHT22;6233;51.560;9.986;2022-07-06T08:39:32;18.60;99.90
12335;DHT22;6233;51.560;9.986;2022-07-06T08:42:35;18.70;99.90
12335;DHT22;6233;51.560;9.986;2022-07-06T08:45:37;18.80;99.90
12335;DHT22;6233;51.560;9.986;2022-07-06T08:48:49;18.80;99.90
12335;DHT22;6233;51.560;9.986;2022-07-06T08:51:52;18.80;99.90
12335;DHT22;6233;51.560;9.986;2022-07-06T08:54:55;19.00;99.90
12335;DHT22;6233;51.560;9.986;2022-07-06T08:58:09;19.30;99.90
12335;DHT22;6233;51.560;9.986;2022-07-06T09:01:11;19.40;99.90
12335;DHT22;6233;51.560;9.986;2022-07-06T09:04:16;19.50;99.90
12335;DHT22;6233;51.560;9.986;2022-07-06T09:07:19;19.50;99.90
12335;DHT22;6233;51.560;9.986;2022-07-06T09:10:41;19.50;99.90
12335;DHT22;6233;51.560;9.986;2022-07-06T09:13:43;19.50;99.90
12335;DHT22;6233;51.560;9.986;2022-07-06T09:16:46;19.50;99.90
12335;DHT22;6233;51.560;9.986;2022-07-06T09:19:50;19.50;99.90
12335;DHT22;6233;51.560;9.986;2022-07-06T09:23:04;19.40;99.90
12335;DHT22;6233;51.560;9.986;2022-07-06T09:26:06;19.30;99.90
12335;DHT22;6233;51.560;9.986;2022-07-06T09:29:08;19.20;99.90
12335;DHT22;6233;51.560;9.986;2022-07-06T09:32:11;19.10;99.90
12335;DHT22;6233;51.560;9.986;2022-07-06T09:35:37;19.20;99.90
12335;DHT22;6233;51.560;9.986;2022-07-06T09:38:39;19.10;99.90
12335;DHT22;6233;51.560;9.986;2022-07-06T09:41:40;19.20;99.90
12335;DHT22;6233;51.560;9.986;2022-07-06T09:44:42;19.20;99.90
12335;DHT22;6233;51.560;9.986;2022-07-06T09:47:47;19.20;99.90
12335;DHT22;6233;51.560;9.986;2022-07-06T09:51:01;19.20;99.90
12335;DHT22;6233;51.560;9.986;2022-07-06T09:54:08;19.20;99.90
12335;DHT22;6233;51.560;9.986;2022-07-06T09:57:10;19.30;99.90
12335;DHT22;6233;51.560;9.986;2022-07-06T10:00:14;19.40;99.90
12335;DHT22;6233;51.560;9.986;2022-07-06T10:03:20;19.30;99.90
12335;DHT22;6233;51.560;9.986;2022-07-06T10:06:24;19.40;99.90
12335;DHT22;6233;51.560;9.986;2022-07-06T10:13:19;19.50;99.90
12335;DHT22;6233;51.560;9.986;2022-07-06T10:16:24;19.60;99.90
12335;DHT22;6233;51.560;9.986;2022-07-06T10:19:32;19.60;99.90
12335;DHT22;6233;51.560;9.986;2022-07-06T10:22:34;19.70;99.90
12335;DHT22;6233;51.560;9.986;2022-07-06T10:25:37;19.80;99.90
12335;DHT22;6233;51.560;9.986;2022-07-06T10:28:39;19.90;99.90
12335;DHT22;6233;51.560;9.986;2022-07-06T10:31:47;19.90;99.90
12335;DHT22;6233;51.560;9.986;2022-07-06T10:34:49;19.90;99.90
12335;DHT22;6233;51.560;9.986;2022-07-06T10:41:53;19.60;99.90
12335;DHT22;6233;51.560;9.986;2022-07-06T10:44:55;19.60;99.90
12335;DHT22;6233;51.560;9.986;2022-07-06T10:48:16;19.60;99.90
12335;DHT22;6233;51.560;9.986;2022-07-06T10:51:27;19.60;99.90
12335;DHT22;6233;51.560;9.986;2022-07-06T10:54:39;19.50;99.90
12335;DHT22;6233;51.560;9.986;2022-07-06T10:57:52;19.50;99.90
12335;DHT22;6233;51.560;9.986;2022-07-06T11:00:55;19.40;99.90
12335;DHT22;6233;51.560;9.986;2022-07-06T11:07:17;19.20;99.90
12335;DHT22;6233;51.560;9.986;2022-07-06T11:10:22;19.10;99.90
12335;DHT22;6233;51.560;9.986;2022-07-06T11:13:28;19.10;99.90
12335;DHT22;6233;51.560;9.986;2022-07-06T11:16:34;19.10;99.90
12335;DHT22;6233;51.560;9.986;2022-07-06T11:19:59;19.30;99.90
12335;DHT22;6233;51.560;9.986;2022-07-06T11:23:12;19.50;99.90
12335;DHT22;6233;51.560;9.986;2022-07-06T11:26:15;19.60;99.90
12335;DHT22;6233;51.560;9.986;2022-07-06T11:29:21;19.60;99.90
12335;DHT22;6233;51.560;9.986;2022-07-06T11:32:25;19.80;99.90
12335;DHT22;6233;51.560;9.986;2022-07-06T11:35:29;19.80;99.90
12335;DHT22;6233;51.560;9.986;2022-07-06T11:38:31;19.90;99.90
12335;DHT22;6233;51.560;9.986;2022-07-06T11:41:35;19.90;99.90
12335;DHT22;6233;51.560;9.986;2022-07-06T11:44:40;19.90;99.90
12335;DHT22;6233;51.560;9.986;2022-07-06T11:47:42;19.90;99.90
12335;DHT22;6233;51.560;9.986;2022-07-06T11:50:57;19.80;99.90
12335;DHT22;6233;51.560;9.986;2022-07-06T11:54:01;19.90;99.90
12335;DHT22;6233;51.560;9.986;2022-07-06T11:57:03;19.90;99.90
12335;DHT22;6233;51.560;9.986;2022-07-06T12:00:06;20.00;99.90
12335;DHT22;6233;51.560;9.986;2022-07-06T12:03:08;20.00;99.90
12335;DHT22;6233;51.560;9.986;2022-07-06T12:06:15;19.90;99.90
12335;DHT22;6233;51.560;9.986;2022-07-06T12:09:17;19.90;99.90
12335;DHT22;6233;51.560;9.986;2022-07-06T12:12:21;19.90;99.90
12335;DHT22;6233;51.560;9.986;2022-07-06T12:15:28;19.90;99.90
12335;DHT22;6233;51.560;9.986;2022-07-06T12:18:36;19.90;99.90
12335;DHT22;6233;51.560;9.986;2022-07-06T12:21:43;20.00;99.30
12335;DHT22;6233;51.560;9.986;2022-07-06T12:24:46;20.00;99.90
12335;DHT22;6233;51.560;9.986;2022-07-06T12:27:48;20.10;99.70
12335;DHT22;6233;51.560;9.986;2022-07-06T12:30:50;20.10;99.30
12335;DHT22;6233;51.560;9.986;2022-07-06T12:33:59;20.10;98.80
12335;DHT22;6233;51.560;9.986;2022-07-06T12:37:11;19.90;98.60
12335;DHT22;6233;51.560;9.986;2022-07-06T12:40:14;19.90;99.00
12335;DHT22;6233;51.560;9.986;2022-07-06T12:43:38;19.80;99.20
12335;DHT22;6233;51.560;9.986;2022-07-06T12:46:44;19.80;99.90
12335;DHT22;6233;51.560;9.986;2022-07-06T12:50:07;19.90;99.90
12335;DHT22;6233;51.560;9.986;2022-07-06T12:53:26;20.00;99.90
12335;DHT22;6233;51.560;9.986;2022-07-06T12:56:34;20.00;99.40
12335;DHT22;6233;51.560;9.986;2022-07-06T12:59:47;20.00;99.30
12335;DHT22;6233;51.560;9.986;2022-07-06T13:02:52;19.90;99.50
12335;DHT22;6233;51.560;9.986;2022-07-06T13:06:13;19.90;99.90
12335;DHT22;6233;51.560;9.986;2022-07-06T13:13:12;19.90;99.90
12335;DHT22;6233;51.560;9.986;2022-07-06T13:16:14;19.90;99.90
12335;DHT22;6233;51.560;9.986;2022-07-06T13:19:15;20.00;99.90
12335;DHT22;6233;51.560;9.986;2022-07-06T13:22:17;20.10;99.90
12335;DHT22;6233;51.560;9.986;2022-07-06T13:25:19;20.10;99.90
12335;DHT22;6233;51.560;9.986;2022-07-06T13:28:21;20.00;99.90
12335;DHT22;6233;51.560;9.986;2022-07-06T13:31:23;19.90;99.90
12335;DHT22;6233;51.560;9.986;2022-07-06T13:34:25;19.90;99.90
12335;DHT22;6233;51.560;9.986;2022-07-06T13:37:27;19.70;99.90
12335;DHT22;6233;51.560;9.986;2022-07-06T13:40:35;19.60;99.90
12335;DHT22;6233;51.560;9.986;2022-07-06T13:43:39;19.50;99.90
12335;DHT22;6233;51.560;9.986;2022-07-06T13:46:41;19.40;99.90
12335;DHT22;6233;51.560;9.986;2022-07-06T13:49:44;19.30;99.90
12335;DHT22;6233;51.560;9.986;2022-07-06T13:52:49;19.20;99.90
12335;DHT22;6233;51.560;9.986;2022-07-06T13:55:51;19.20;99.90
12335;DHT22;6233;51.560;9.986;2022-07-06T13:58:54;19.20;99.90
12335;DHT22;6233;51.560;9.986;2022-07-06T14:01:56;19.20;99.90
12335;DHT22;6233;51.560;9.986;2022-07-06T14:04:58;19.30;99.90
12335;DHT22;6233;51.560;9.986;2022-07-06T14:08:00;19.40;99.90
12335;DHT22;6233;51.560;9.986;2022-07-06T14:11:03;19.50;99.90
12335;DHT22;6233;51.560;9.986;2022-07-06T14:14:06;19.50;99.90
12335;DHT22;6233;51.560;9.986;2022-07-06T14:17:08;19.50;99.90
12335;DHT22;6233;51.560;9.986;2022-07-06T14:20:11;19.50;99.90
12335;DHT22;6233;51.560;9.986;2022-07-06T14:23:13;19.60;99.90
12335;DHT22;6233;51.560;9.986;2022-07-06T14:26:15;19.70;99.90
12335;DHT22;6233;51.560;9.986;2022-07-06T14:29:17;19.70;99.90
12335;DHT22;6233;51.560;9.986;2022-07-06T14:32:19;19.70;99.90
12335;DHT22;6233;51.560;9.986;2022-07-06T14:35:21;19.70;99.90
12335;DHT22;6233;51.560;9.986;2022-07-06T14:38:23;19.60;99.90
12335;DHT22;6233;51.560;9.986;2022-07-06T14:41:25;19.60;99.90
12335;DHT22;6233;51.560;9.986;2022-07-06T14:44:27;19.70;99.90
12335;DHT22;6233;51.560;9.986;2022-07-06T14:47:32;19.70;99.90
12335;DHT22;6233;51.560;9.986;2022-07-06T14:50:34;19.70;99.90
12335;DHT22;6233;51.560;9.986;2022-07-06T14:53:36;19.80;99.90
12335;DHT22;6233;51.560;9.986;2022-07-06T14:56:38;19.80;99.90
12335;DHT22;6233;51.560;9.986;2022-07-06T14:59:40;19.80;99.90
12335;DHT22;6233;51.560;9.986;2022-07-06T15:02:42;19.70;99.90
12335;DHT22;6233;51.560;9.986;2022-07-06T15:05:44;19.80;99.90
12335;DHT22;6233;51.560;9.986;2022-07-06T15:08:47;19.70;99.90
12335;DHT22;6233;51.560;9.986;2022-07-06T15:11:49;19.70;99.90
12335;DHT22;6233;51.560;9.986;2022-07-06T15:14:51;19.70;99.90
12335;DHT22;6233;51.560;9.986;2022-07-06T15:17:53;19.70;99.90
12335;DHT22;6233;51.560;9.986;2022-07-06T15:20:55;19.60;99.90
12335;DHT22;6233;51.560;9.986;2022-07-06T15:23:57;19.60;99.90
12335;DHT22;6233;51.560;9.986;2022-07-06T15:26:59;19.70;99.90
12335;DHT22;6233;51.560;9.986;2022-07-06T15:30:03;19.70;99.90
12335;DHT22;6233;51.560;9.986;2022-07-06T15:33:25;19.70;99.90
12335;DHT22;6233;51.560;9.986;2022-07-06T15:36:27;19.80;99.90
12335;DHT22;6233;51.560;9.986;2022-07-06T15:39:32;19.70;99.90
12335;DHT22;6233;51.560;9.986;2022-07-06T15:42:34;19.70;99.90
12335;DHT22;6233;51.560;9.986;2022-07-06T15:45:45;19.70;99.90
12335;DHT22;6233;51.560;9.986;2022-07-06T15:48:47;19.70;99.90
12335;DHT22;6233;51.560;9.986;2022-07-06T15:51:49;19.60;99.90
12335;DHT22;6233;51.560;9.986;2022-07-06T15:54:50;19.50;99.90
12335;DHT22;6233;51.560;9.986;2022-07-06T15:57:52;19.50;99.90
12335;DHT22;6233;51.560;9.986;2022-07-06T16:00:55;19.50;99.90
12335;DHT22;6233;51.560;9.986;2022-07-06T16:03:59;19.50;99.90
12335;DHT22;6233;51.560;9.986;2022-07-06T16:07:02;19.40;99.90
12335;DHT22;6233;51.560;9.986;2022-07-06T16:10:24;19.40;99.90
12335;DHT22;6233;51.560;9.986;2022-07-06T16:13:32;19.40;99.90
12335;DHT22;6233;51.560;9.986;2022-07-06T16:16:34;19.40;99.90
12335;DHT22;6233;51.560;9.986;2022-07-06T16:19:36;19.40;99.90
12335;DHT22;6233;51.560;9.986;2022-07-06T16:22:38;19.40;99.90
12335;DHT22;6233;51.560;9.986;2022-07-06T16:25:39;19.50;99.90
12335;DHT22;6233;51.560;9.986;2022-07-06T16:28:42;19.50;99.90
12335;DHT22;6233;51.560;9.986;2022-07-06T16:31:43;19.50;99.90
12335;DHT22;6233;51.560;9.986;2022-07-06T16:34:45;19.40;99.90
12335;DHT22;6233;51.560;9.986;2022-07-06T16:37:47;19.40;99.90
12335;DHT22;6233;51.560;9.986;2022-07-06T16:40:49;19.40;99.90
12335;DHT22;6233;51.560;9.986;2022-07-06T16:43:52;19.40;99.90
12335;DHT22;6233;51.560;9.986;2022-07-06T16:46:54;19.30;99.90
12335;DHT22;6233;51.560;9.986;2022-07-06T16:49:56;19.30;99.90
12335;DHT22;6233;51.560;9.986;2022-07-06T16:53:00;19.30;99.90
12335;DHT22;6233;51.560;9.986;2022-07-06T16:56:13;19.20;99.90
12335;DHT22;6233;51.560;9.986;2022-07-06T16:59:14;19.30;99.90
12335;DHT22;6233;51.560;9.986;2022-07-06T17:02:16;19.20;99.90
12335;DHT22;6233;51.560;9.986;2022-07-06T17:05:20;19.20;99.90
12335;DHT22;6233;51.560;9.986;2022-07-06T17:08:22;19.30;99.90
12335;DHT22;6233;51.560;9.986;2022-07-06T17:11:24;19.30;99.90
12335;DHT22;6233;51.560;9.986;2022-07-06T17:14:26;19.40;99.90
12335;DHT22;6233;51.560;9.986;2022-07-06T17:17:28;19.40;99.90
12335;DHT22;6233;51.560;9.986;2022-07-06T17:20:30;19.40;99.90
12335;DHT22;6233;51.560;9.986;2022-07-06T17:23:33;19.40;99.90
12335;DHT22;6233;51.560;9.986;2022-07-06T17:26:35;19.30;99.90
12335;DHT22;6233;51.560;9.986;2022-07-06T17:29:37;19.30;99.90
12335;DHT22;6233;51.560;9.986;2022-07-06T17:32:39;19.30;99.90
12335;DHT22;6233;51.560;9.986;2022-07-06T17:35:41;19.20;99.90
12335;DHT22;6233;51.560;9.986;2022-07-06T17:38:43;19.10;99.90
12335;DHT22;6233;51.560;9.986;2022-07-06T17:41:45;19.00;99.90
12335;DHT22;6233;51.560;9.986;2022-07-06T17:44:47;19.00;99.90
12335;DHT22;6233;51.560;9.986;2022-07-06T17:47:49;19.00;99.90
12335;DHT22;6233;51.560;9.986;2022-07-06T17:50:51;18.90;99.90
12335;DHT22;6233;51.560;9.986;2022-07-06T17:53:53;18.80;99.90
12335;DHT22;6233;51.560;9.986;2022-07-06T17:56:54;18.90;99.90
12335;DHT22;6233;51.560;9.986;2022-07-06T17:59:59;18.80;99.90
12335;DHT22;6233;51.560;9.986;2022-07-06T18:03:02;18.80;99.90
12335;DHT22;6233;51.560;9.986;2022-07-06T18:06:04;18.70;99.90
12335;DHT22;6233;51.560;9.986;2022-07-06T18:09:06;18.70;99.90
12335;DHT22;6233;51.560;9.986;2022-07-06T18:12:11;18.70;99.90
12335;DHT22;6233;51.560;9.986;2022-07-06T18:15:18;18.60;99.90
12335;DHT22;6233;51.560;9.986;2022-07-06T18:18:20;18.60;99.90
12335;DHT22;6233;51.560;9.986;2022-07-06T18:21:22;18.60;99.90
12335;DHT22;6233;51.560;9.986;2022-07-06T18:24:24;18.50;99.90
12335;DHT22;6233;51.560;9.986;2022-07-06T18:27:28;18.50;99.90
12335;DHT22;6233;51.560;9.986;2022-07-06T18:30:31;18.50;99.90
12335;DHT22;6233;51.560;9.986;2022-07-06T18:33:41;18.40;99.90
12335;DHT22;6233;51.560;9.986;2022-07-06T18:36:43;18.40;99.90
12335;DHT22;6233;51.560;9.986;2022-07-06T18:39:45;18.30;99.90
12335;DHT22;6233;51.560;9.986;2022-07-06T18:42:47;18.30;99.90
12335;DHT22;6233;51.560;9.986;2022-07-06T18:45:49;18.30;99.90
12335;DHT22;6233;51.560;9.986;2022-07-06T18:48:52;18.30;99.90
12335;DHT22;6233;51.560;9.986;2022-07-06T18:51:54;18.30;99.90
12335;DHT22;6233;51.560;9.986;2022-07-06T18:54:59;18.20;99.90
12335;DHT22;6233;51.560;9.986;2022-07-06T18:58:04;18.20;99.90
12335;DHT22;6233;51.560;9.986;2022-07-06T19:01:06;18.20;99.90
12335;DHT22;6233;51.560;9.986;2022-07-06T19:04:08;18.20;99.90
12335;DHT22;6233;51.560;9.986;2022-07-06T19:07:10;18.20;99.90
12335;DHT22;6233;51.560;9.986;2022-07-06T19:10:14;18.20;99.90
12335;DHT22;6233;51.560;9.986;2022-07-06T19:13:16;18.10;99.90
12335;DHT22;6233;51.560;9.986;2022-07-06T19:16:18;18.10;99.90
12335;DHT22;6233;51.560;9.986;2022-07-06T19:19:20;18.10;99.90
12335;DHT22;6233;51.560;9.986;2022-07-06T19:22:23;18.10;99.90
12335;DHT22;6233;51.560;9.986;2022-07-06T19:25:25;18.00;99.90
12335;DHT22;6233;51.560;9.986;2022-07-06T19:28:27;18.00;99.90
12335;DHT22;6233;51.560;9.986;2022-07-06T19:31:31;17.90;99.90
12335;DHT22;6233;51.560;9.986;2022-07-06T19:34:33;18.00;99.90
12335;DHT22;6233;51.560;9.986;2022-07-06T19:37:35;18.00;99.90
12335;DHT22;6233;51.560;9.986;2022-07-06T19:40:37;18.00;99.90
12335;DHT22;6233;51.560;9.986;2022-07-06T19:44:08;18.00;99.90
12335;DHT22;6233;51.560;9.986;2022-07-06T19:47:14;17.90;99.90
12335;DHT22;6233;51.560;9.986;2022-07-06T19:50:16;17.90;99.90
12335;DHT22;6233;51.560;9.986;2022-07-06T19:53:18;17.90;99.90